sensor_id;sensor_type;location;lat;lon;timestamp;pressure;altitude;pressure_sealevel;temperature;humidity
75745;BME280;64359;51.366;-0.222;2023-10-19T00:00:33;98332.78;;;21.46;60.24
75745;BME280;64359;51.366;-0.222;2023-10-19T00:01:35;98338.41;;;21.46;60.17
75745;BME280;64359;51.366;-0.222;2023-10-19T00:02:39;98335.20;;;21.44;60.18
75745;BME280;64359;51.366;-0.222;2023-10-19T00:03:41;98340.74;;;21.46;60.23
75745;BME280;64359;51.366;-0.222;2023-10-19T00:04:45;98342.64;;;21.45;60.20
75745;BME280;64359;51.366;-0.222;2023-10-19T00:05:48;98347.45;;;21.45;60.15
75745;BME280;64359;51.366;-0.222;2023-10-19T00:06:50;98344.30;;;21.45;60.10
75745;BME280;64359;51.366;-0.222;2023-10-19T00:07:52;98347.61;;;21.45;60.20
75745;BME280;64359;51.366;-0.222;2023-10-19T00:08:58;98351.45;;;21.44;60.11
75745;BME280;64359;51.366;-0.222;2023-10-19T00:10:01;98356.38;;;21.44;60.11
75745;BME280;64359;51.366;-0.222;2023-10-19T00:11:05;98349.23;;;21.39;60.16
75745;BME280;64359;51.366;-0.222;2023-10-19T00:12:10;98359.30;;;21.44;60.13
75745;BME280;64359;51.366;-0.222;2023-10-19T00:13:12;98355.77;;;21.43;60.22
75745;BME280;64359;51.366;-0.222;2023-10-19T00:14:15;98361.84;;;21.43;60.04
75745;BME280;64359;51.366;-0.222;2023-10-19T00:15:18;98365.84;;;21.42;60.16
75745;BME280;64359;51.366;-0.222;2023-10-19T00:16:25;98367.36;;;21.42;60.22
75745;BME280;64359;51.366;-0.222;2023-10-19T00:17:30;98361.66;;;21.41;60.16
75745;BME280;64359;51.366;-0.222;2023-10-19T00:18:34;98366.70;;;21.41;60.21
75745;BME280;64359;51.366;-0.222;2023-10-19T00:19:36;98367.50;;;21.41;60.28
75745;BME280;64359;51.366;-0.222;2023-10-19T00:20:41;98362.73;;;21.40;60.32
75745;BME280;64359;51.366;-0.222;2023-10-19T00:21:53;98365.87;;;21.40;60.21
75745;BME280;64359;51.366;-0.222;2023-10-19T00:22:57;98364.61;;;21.40;60.26
75745;BME280;64359;51.366;-0.222;2023-10-19T00:24:00;98367.00;;;21.40;60.39
75745;BME280;64359;51.366;-0.222;2023-10-19T00:25:07;98362.27;;;21.39;60.31
75745;BME280;64359;51.366;-0.222;2023-10-19T00:26:15;98366.07;;;21.39;60.32
75745;BME280;64359;51.366;-0.222;2023-10-19T00:27:19;98364.45;;;21.39;60.30
75745;BME280;64359;51.366;-0.222;2023-10-19T00:28:24;98363.84;;;21.38;60.24
75745;BME280;64359;51.366;-0.222;2023-10-19T00:29:28;98362.05;;;21.38;60.26
75745;BME280;64359;51.366;-0.222;2023-10-19T00:30:34;98363.34;;;21.38;60.40
75745;BME280;64359;51.366;-0.222;2023-10-19T00:31:37;98367.68;;;21.38;60.43
75745;BME280;64359;51.366;-0.222;2023-10-19T00:32:42;98366.16;;;21.37;60.40
75745;BME280;64359;51.366;-0.222;2023-10-19T00:33:45;98367.40;;;21.37;60.28
75745;BME280;64359;51.366;-0.222;2023-10-19T00:34:47;98367.30;;;21.38;60.29
75745;BME280;64359;51.366;-0.222;2023-10-19T00:35:53;98364.31;;;21.37;60.29
75745;BME280;64359;51.366;-0.222;2023-10-19T00:36:59;98361.48;;;21.37;60.28
75745;BME280;64359;51.366;-0.222;2023-10-19T00:38:09;98363.66;;;21.37;60.38
75745;BME280;64359;51.366;-0.222;2023-10-19T00:39:23;98360.62;;;21.37;60.37
75745;BME280;64359;51.366;-0.222;2023-10-19T00:40:25;98355.64;;;21.37;60.27
75745;BME280;64359;51.366;-0.222;2023-10-19T00:41:36;98352.16;;;21.36;60.39
75745;BME280;64359;51.366;-0.222;2023-10-19T00:42:39;98357.69;;;21.36;60.39
75745;BME280;64359;51.366;-0.222;2023-10-19T00:43:47;98357.90;;;21.36;60.41
75745;BME280;64359;51.366;-0.222;2023-10-19T00:44:51;98355.41;;;21.35;60.40
75745;BME280;64359;51.366;-0.222;2023-10-19T00:45:53;98354.44;;;21.36;60.31
75745;BME280;64359;51.366;-0.222;2023-10-19T00:46:55;98359.41;;;21.35;60.40
75745;BME280;64359;51.366;-0.222;2023-10-19T00:48:05;98368.25;;;21.35;60.37
75745;BME280;64359;51.366;-0.222;2023-10-19T00:49:10;98367.42;;;21.35;60.38
75745;BME280;64359;51.366;-0.222;2023-10-19T00:50:15;98367.38;;;21.35;60.41
75745;BME280;64359;51.366;-0.222;2023-10-19T00:51:21;98370.46;;;21.35;60.35
75745;BME280;64359;51.366;-0.222;2023-10-19T00:52:43;98373.48;;;21.34;60.41
75745;BME280;64359;51.366;-0.222;2023-10-19T00:53:51;98373.96;;;21.34;60.46
75745;BME280;64359;51.366;-0.222;2023-10-19T00:54:53;98373.91;;;21.34;60.37
75745;BME280;64359;51.366;-0.222;2023-10-19T00:56:00;98369.27;;;21.34;60.53
75745;BME280;64359;51.366;-0.222;2023-10-19T00:57:04;98370.29;;;21.34;60.35
75745;BME280;64359;51.366;-0.222;2023-10-19T00:58:10;98371.38;;;21.34;60.41
75745;BME280;64359;51.366;-0.222;2023-10-19T00:59:17;98368.56;;;21.31;60.38
75745;BME280;64359;51.366;-0.222;2023-10-19T01:00:23;98371.40;;;21.33;60.41
75745;BME280;64359;51.366;-0.222;2023-10-19T01:01:33;98372.16;;;21.33;60.44
75745;BME280;64359;51.366;-0.222;2023-10-19T01:02:42;98373.46;;;21.32;60.42
75745;BME280;64359;51.366;-0.222;2023-10-19T01:03:47;98373.02;;;21.32;60.46
75745;BME280;64359;51.366;-0.222;2023-10-19T01:04:55;98375.95;;;21.32;60.55
75745;BME280;64359;51.366;-0.222;2023-10-19T01:05:57;98376.15;;;21.31;60.49
75745;BME280;64359;51.366;-0.222;2023-10-19T01:07:00;98372.69;;;21.31;60.52
75745;BME280;64359;51.366;-0.222;2023-10-19T01:08:07;98377.60;;;21.30;60.52
75745;BME280;64359;51.366;-0.222;2023-10-19T01:09:24;98380.27;;;21.29;60.56
75745;BME280;64359;51.366;-0.222;2023-10-19T01:10:29;98373.70;;;21.29;60.52
75745;BME280;64359;51.366;-0.222;2023-10-19T01:11:33;98376.07;;;21.28;60.57
75745;BME280;64359;51.366;-0.222;2023-10-19T01:12:36;98378.02;;;21.28;60.61
75745;BME280;64359;51.366;-0.222;2023-10-19T01:13:40;98379.91;;;21.27;60.58
75745;BME280;64359;51.366;-0.222;2023-10-19T01:14:46;98377.02;;;21.26;60.67
75745;BME280;64359;51.366;-0.222;2023-10-19T01:16:03;98377.23;;;21.26;60.62
75745;BME280;64359;51.366;-0.222;2023-10-19T01:17:06;98372.89;;;21.25;60.68
75745;BME280;64359;51.366;-0.222;2023-10-19T01:18:08;98370.66;;;21.24;60.69
75745;BME280;64359;51.366;-0.222;2023-10-19T01:19:15;98373.23;;;21.24;60.68
75745;BME280;64359;51.366;-0.222;2023-10-19T01:20:22;98373.84;;;21.23;60.78
75745;BME280;64359;51.366;-0.222;2023-10-19T01:21:25;98370.90;;;21.24;60.66
75745;BME280;64359;51.366;-0.222;2023-10-19T01:22:29;98369.91;;;21.23;60.64
75745;BME280;64359;51.366;-0.222;2023-10-19T01:23:31;98368.35;;;21.23;60.63
75745;BME280;64359;51.366;-0.222;2023-10-19T01:24:36;98366.34;;;21.23;60.70
75745;BME280;64359;51.366;-0.222;2023-10-19T01:25:44;98358.36;;;21.22;60.61
75745;BME280;64359;51.366;-0.222;2023-10-19T01:26:51;98362.37;;;21.22;60.63
75745;BME280;64359;51.366;-0.222;2023-10-19T01:27:55;98367.62;;;21.22;60.74
75745;BME280;64359;51.366;-0.222;2023-10-19T01:28:59;98373.03;;;21.21;60.65
75745;BME280;64359;51.366;-0.222;2023-10-19T01:30:04;98372.00;;;21.21;60.61
75745;BME280;64359;51.366;-0.222;2023-10-19T01:31:07;98370.96;;;21.21;60.62
75745;BME280;64359;51.366;-0.222;2023-10-19T01:32:10;98370.05;;;21.21;60.53
75745;BME280;64359;51.366;-0.222;2023-10-19T01:33:13;98370.27;;;21.21;60.71
75745;BME280;64359;51.366;-0.222;2023-10-19T01:34:17;98367.71;;;21.20;60.57
75745;BME280;64359;51.366;-0.222;2023-10-19T01:35:21;98369.02;;;21.21;60.57
75745;BME280;64359;51.366;-0.222;2023-10-19T01:36:24;98366.19;;;21.20;60.56
75745;BME280;64359;51.366;-0.222;2023-10-19T01:37:27;98367.07;;;21.21;60.63
75745;BME280;64359;51.366;-0.222;2023-10-19T01:38:30;98369.45;;;21.21;60.66
75745;BME280;64359;51.366;-0.222;2023-10-19T01:39:33;98361.96;;;21.20;60.64
75745;BME280;64359;51.366;-0.222;2023-10-19T01:40:37;98363.20;;;21.20;60.49
75745;BME280;64359;51.366;-0.222;2023-10-19T01:41:48;98362.27;;;21.18;60.63
75745;BME280;64359;51.366;-0.222;2023-10-19T01:42:52;98362.71;;;21.20;60.64
75745;BME280;64359;51.366;-0.222;2023-10-19T01:43:54;98358.77;;;21.19;60.68
75745;BME280;64359;51.366;-0.222;2023-10-19T01:44:57;98359.20;;;21.19;60.62
75745;BME280;64359;51.366;-0.222;2023-10-19T01:46:01;98357.19;;;21.19;60.67
75745;BME280;64359;51.366;-0.222;2023-10-19T01:47:06;98357.02;;;21.19;60.66
75745;BME280;64359;51.366;-0.222;2023-10-19T01:48:08;98353.84;;;21.20;60.61
75745;BME280;64359;51.366;-0.222;2023-10-19T01:49:14;98349.02;;;21.19;60.73
75745;BME280;64359;51.366;-0.222;2023-10-19T01:50:27;98349.07;;;21.19;60.62
75745;BME280;64359;51.366;-0.222;2023-10-19T01:51:32;98350.42;;;21.19;60.62
75745;BME280;64359;51.366;-0.222;2023-10-19T01:52:34;98346.95;;;21.19;60.67
75745;BME280;64359;51.366;-0.222;2023-10-19T01:53:37;98347.50;;;21.19;60.72
75745;BME280;64359;51.366;-0.222;2023-10-19T01:54:41;98347.33;;;21.19;60.66
75745;BME280;64359;51.366;-0.222;2023-10-19T01:55:44;98349.00;;;21.18;60.75
75745;BME280;64359;51.366;-0.222;2023-10-19T01:56:48;98348.95;;;21.19;60.69
75745;BME280;64359;51.366;-0.222;2023-10-19T01:57:52;98346.46;;;21.19;60.69
75745;BME280;64359;51.366;-0.222;2023-10-19T01:58:54;98344.13;;;21.19;60.74
75745;BME280;64359;51.366;-0.222;2023-10-19T01:59:57;98347.97;;;21.18;60.69
75745;BME280;64359;51.366;-0.222;2023-10-19T02:00:59;98351.23;;;21.18;60.70
75745;BME280;64359;51.366;-0.222;2023-10-19T02:02:02;98347.59;;;21.18;60.58
75745;BME280;64359;51.366;-0.222;2023-10-19T02:03:07;98347.14;;;21.17;60.69
75745;BME280;64359;51.366;-0.222;2023-10-19T02:04:10;98347.21;;;21.18;60.69
75745;BME280;64359;51.366;-0.222;2023-10-19T02:05:15;98344.61;;;21.18;60.72
75745;BME280;64359;51.366;-0.222;2023-10-19T02:06:24;98346.19;;;21.18;60.75
75745;BME280;64359;51.366;-0.222;2023-10-19T02:07:29;98346.07;;;21.18;60.73
75745;BME280;64359;51.366;-0.222;2023-10-19T02:08:31;98349.54;;;21.17;60.75
75745;BME280;64359;51.366;-0.222;2023-10-19T02:09:33;98347.58;;;21.17;60.71
75745;BME280;64359;51.366;-0.222;2023-10-19T02:10:36;98345.53;;;21.18;60.73
75745;BME280;64359;51.366;-0.222;2023-10-19T02:11:42;98345.36;;;21.18;60.71
75745;BME280;64359;51.366;-0.222;2023-10-19T02:12:47;98345.41;;;21.17;60.75
75745;BME280;64359;51.366;-0.222;2023-10-19T02:13:51;98344.50;;;21.17;60.75
75745;BME280;64359;51.366;-0.222;2023-10-19T02:14:54;98336.10;;;21.17;60.66
75745;BME280;64359;51.366;-0.222;2023-10-19T02:15:56;98337.45;;;21.16;60.73
75745;BME280;64359;51.366;-0.222;2023-10-19T02:17:00;98335.93;;;21.17;60.71
75745;BME280;64359;51.366;-0.222;2023-10-19T02:18:05;98330.57;;;21.16;60.74
75745;BME280;64359;51.366;-0.222;2023-10-19T02:19:09;98327.53;;;21.16;60.77
75745;BME280;64359;51.366;-0.222;2023-10-19T02:20:13;98323.86;;;21.16;60.77
75745;BME280;64359;51.366;-0.222;2023-10-19T02:21:26;98322.00;;;21.16;60.77
75745;BME280;64359;51.366;-0.222;2023-10-19T02:22:32;98324.65;;;21.15;60.76
75745;BME280;64359;51.366;-0.222;2023-10-19T02:23:35;98316.25;;;21.14;60.83
75745;BME280;64359;51.366;-0.222;2023-10-19T02:24:38;98316.41;;;21.14;60.86
75745;BME280;64359;51.366;-0.222;2023-10-19T02:25:41;98313.00;;;21.14;60.78
75745;BME280;64359;51.366;-0.222;2023-10-19T02:26:45;98310.51;;;21.14;60.88
75745;BME280;64359;51.366;-0.222;2023-10-19T02:27:48;98311.10;;;21.14;60.83
75745;BME280;64359;51.366;-0.222;2023-10-19T02:28:50;98313.86;;;21.13;60.86
75745;BME280;64359;51.366;-0.222;2023-10-19T02:29:53;98311.52;;;21.14;60.87
75745;BME280;64359;51.366;-0.222;2023-10-19T02:30:55;98307.95;;;21.13;60.84
75745;BME280;64359;51.366;-0.222;2023-10-19T02:31:58;98308.54;;;21.13;60.90
75745;BME280;64359;51.366;-0.222;2023-10-19T02:33:06;98308.27;;;21.13;60.80
75745;BME280;64359;51.366;-0.222;2023-10-19T02:34:11;98308.04;;;21.12;60.81
75745;BME280;64359;51.366;-0.222;2023-10-19T02:35:16;98306.90;;;21.12;60.79
75745;BME280;64359;51.366;-0.222;2023-10-19T02:36:20;98306.31;;;21.12;60.86
75745;BME280;64359;51.366;-0.222;2023-10-19T02:37:22;98301.76;;;21.11;60.84
75745;BME280;64359;51.366;-0.222;2023-10-19T02:38:26;98300.02;;;21.11;60.91
75745;BME280;64359;51.366;-0.222;2023-10-19T02:39:29;98296.11;;;21.11;60.79
75745;BME280;64359;51.366;-0.222;2023-10-19T02:40:31;98295.99;;;21.10;60.80
75745;BME280;64359;51.366;-0.222;2023-10-19T02:41:34;98297.36;;;21.11;60.82
75745;BME280;64359;51.366;-0.222;2023-10-19T02:42:36;98296.11;;;21.11;60.78
75745;BME280;64359;51.366;-0.222;2023-10-19T02:43:39;98297.11;;;21.08;60.91
75745;BME280;64359;51.366;-0.222;2023-10-19T02:44:42;98297.86;;;21.08;60.86
75745;BME280;64359;51.366;-0.222;2023-10-19T02:45:44;98293.52;;;21.07;60.83
75745;BME280;64359;51.366;-0.222;2023-10-19T02:46:50;98293.36;;;21.08;60.86
75745;BME280;64359;51.366;-0.222;2023-10-19T02:47:53;98293.25;;;21.07;60.84
75745;BME280;64359;51.366;-0.222;2023-10-19T02:48:56;98296.61;;;21.07;60.82
75745;BME280;64359;51.366;-0.222;2023-10-19T02:49:58;98292.55;;;21.07;60.83
75745;BME280;64359;51.366;-0.222;2023-10-19T02:51:01;98291.47;;;21.07;60.80
75745;BME280;64359;51.366;-0.222;2023-10-19T02:52:12;98283.08;;;21.07;60.77
75745;BME280;64359;51.366;-0.222;2023-10-19T02:53:17;98280.20;;;21.06;60.81
75745;BME280;64359;51.366;-0.222;2023-10-19T02:54:22;98281.49;;;21.06;60.82
75745;BME280;64359;51.366;-0.222;2023-10-19T02:55:26;98282.15;;;21.07;60.83
75745;BME280;64359;51.366;-0.222;2023-10-19T02:56:29;98284.97;;;21.07;60.75
75745;BME280;64359;51.366;-0.222;2023-10-19T02:57:31;98284.16;;;21.07;60.75
75745;BME280;64359;51.366;-0.222;2023-10-19T02:58:34;98279.88;;;21.07;60.85
75745;BME280;64359;51.366;-0.222;2023-10-19T02:59:36;98273.98;;;21.07;60.77
75745;BME280;64359;51.366;-0.222;2023-10-19T03:00:38;98272.42;;;21.08;60.75
75745;BME280;64359;51.366;-0.222;2023-10-19T03:01:41;98273.44;;;21.07;60.79
75745;BME280;64359;51.366;-0.222;2023-10-19T03:02:45;98272.36;;;21.07;60.77
75745;BME280;64359;51.366;-0.222;2023-10-19T03:03:51;98269.80;;;21.07;60.75
75745;BME280;64359;51.366;-0.222;2023-10-19T03:04:55;98265.69;;;21.07;60.67
75745;BME280;64359;51.366;-0.222;2023-10-19T03:05:58;98269.86;;;21.07;60.82
75745;BME280;64359;51.366;-0.222;2023-10-19T03:07:01;98270.19;;;21.07;60.76
75745;BME280;64359;51.366;-0.222;2023-10-19T03:08:04;98268.77;;;21.07;60.76
75745;BME280;64359;51.366;-0.222;2023-10-19T03:09:08;98271.75;;;21.06;60.75
75745;BME280;64359;51.366;-0.222;2023-10-19T03:10:15;98272.45;;;21.07;60.82
75745;BME280;64359;51.366;-0.222;2023-10-19T03:11:25;98269.84;;;21.06;60.75
75745;BME280;64359;51.366;-0.222;2023-10-19T03:12:29;98265.92;;;21.05;60.83
75745;BME280;64359;51.366;-0.222;2023-10-19T03:13:32;98267.29;;;21.06;60.94
75745;BME280;64359;51.366;-0.222;2023-10-19T03:14:34;98268.67;;;21.05;60.87
75745;BME280;64359;51.366;-0.222;2023-10-19T03:15:37;98264.67;;;21.05;60.81
75745;BME280;64359;51.366;-0.222;2023-10-19T03:16:41;98274.20;;;21.05;60.80
75745;BME280;64359;51.366;-0.222;2023-10-19T03:17:44;98270.79;;;21.05;60.86
75745;BME280;64359;51.366;-0.222;2023-10-19T03:18:46;98273.29;;;21.06;60.81
75745;BME280;64359;51.366;-0.222;2023-10-19T03:19:49;98279.25;;;21.06;60.94
75745;BME280;64359;51.366;-0.222;2023-10-19T03:20:51;98279.35;;;21.05;60.77
75745;BME280;64359;51.366;-0.222;2023-10-19T03:21:53;98277.50;;;21.05;60.87
75745;BME280;64359;51.366;-0.222;2023-10-19T03:22:56;98279.22;;;21.04;60.87
75745;BME280;64359;51.366;-0.222;2023-10-19T03:24:02;98276.05;;;21.02;60.92
75745;BME280;64359;51.366;-0.222;2023-10-19T03:25:13;98278.86;;;21.02;60.96
75745;BME280;64359;51.366;-0.222;2023-10-19T03:26:34;98281.11;;;21.00;61.05
75745;BME280;64359;51.366;-0.222;2023-10-19T03:27:38;98282.09;;;21.00;61.05
75745;BME280;64359;51.366;-0.222;2023-10-19T03:28:41;98278.11;;;20.98;61.00
75745;BME280;64359;51.366;-0.222;2023-10-19T03:29:45;98279.21;;;21.00;61.03
75745;BME280;64359;51.366;-0.222;2023-10-19T03:30:49;98274.94;;;21.00;61.02
75745;BME280;64359;51.366;-0.222;2023-10-19T03:31:51;98275.80;;;21.00;61.05
75745;BME280;64359;51.366;-0.222;2023-10-19T03:32:54;98275.22;;;21.00;60.99
75745;BME280;64359;51.366;-0.222;2023-10-19T03:33:56;98274.84;;;21.01;60.97
75745;BME280;64359;51.366;-0.222;2023-10-19T03:35:00;98272.02;;;21.00;60.96
75745;BME280;64359;51.366;-0.222;2023-10-19T03:36:05;98271.59;;;21.01;60.94
75745;BME280;64359;51.366;-0.222;2023-10-19T03:37:14;98269.80;;;21.00;60.97
75745;BME280;64359;51.366;-0.222;2023-10-19T03:38:16;98271.65;;;21.00;61.07
75745;BME280;64359;51.366;-0.222;2023-10-19T03:39:20;98267.90;;;21.00;61.03
75745;BME280;64359;51.366;-0.222;2023-10-19T03:40:23;98272.14;;;21.00;60.94
75745;BME280;64359;51.366;-0.222;2023-10-19T03:41:31;98264.41;;;20.98;61.12
75745;BME280;64359;51.366;-0.222;2023-10-19T03:42:37;98266.33;;;21.00;61.03
75745;BME280;64359;51.366;-0.222;2023-10-19T03:43:42;98264.48;;;21.00;61.10
75745;BME280;64359;51.366;-0.222;2023-10-19T03:44:45;98263.62;;;21.00;61.11
75745;BME280;64359;51.366;-0.222;2023-10-19T03:45:51;98255.66;;;21.00;61.14
75745;BME280;64359;51.366;-0.222;2023-10-19T03:46:54;98250.37;;;21.00;61.09
75745;BME280;64359;51.366;-0.222;2023-10-19T03:47:59;98246.73;;;21.00;61.14
75745;BME280;64359;51.366;-0.222;2023-10-19T03:49:09;98256.43;;;21.01;61.24
75745;BME280;64359;51.366;-0.222;2023-10-19T03:50:13;98255.90;;;21.02;61.23
75745;BME280;64359;51.366;-0.222;2023-10-19T03:51:16;98254.13;;;21.02;61.14
75745;BME280;64359;51.366;-0.222;2023-10-19T03:52:19;98250.24;;;21.03;61.23
75745;BME280;64359;51.366;-0.222;2023-10-19T03:53:22;98249.98;;;21.05;61.25
75745;BME280;64359;51.366;-0.222;2023-10-19T03:54:24;98245.52;;;21.06;61.38
75745;BME280;64359;51.366;-0.222;2023-10-19T03:55:27;98242.37;;;21.07;61.22
75745;BME280;64359;51.366;-0.222;2023-10-19T03:56:30;98239.50;;;21.08;61.28
75745;BME280;64359;51.366;-0.222;2023-10-19T03:57:34;98238.88;;;21.10;61.26
75745;BME280;64359;51.366;-0.222;2023-10-19T03:58:36;98238.90;;;21.12;61.25
75745;BME280;64359;51.366;-0.222;2023-10-19T03:59:41;98229.65;;;21.13;61.18
75745;BME280;64359;51.366;-0.222;2023-10-19T04:00:43;98230.37;;;21.14;61.13
75745;BME280;64359;51.366;-0.222;2023-10-19T04:01:46;98232.56;;;21.16;61.21
75745;BME280;64359;51.366;-0.222;2023-10-19T04:02:49;98227.33;;;21.18;61.10
75745;BME280;64359;51.366;-0.222;2023-10-19T04:03:54;98225.52;;;21.17;61.09
75745;BME280;64359;51.366;-0.222;2023-10-19T04:04:59;98230.50;;;21.21;61.13
75745;BME280;64359;51.366;-0.222;2023-10-19T04:06:03;98229.42;;;21.22;61.06
75745;BME280;64359;51.366;-0.222;2023-10-19T04:07:06;98234.77;;;21.24;61.00
75745;BME280;64359;51.366;-0.222;2023-10-19T04:08:15;98233.83;;;21.25;61.11
75745;BME280;64359;51.366;-0.222;2023-10-19T04:09:22;98232.11;;;21.27;61.00
75745;BME280;64359;51.366;-0.222;2023-10-19T04:10:25;98232.40;;;21.28;61.01
75745;BME280;64359;51.366;-0.222;2023-10-19T04:11:39;98228.27;;;21.30;61.05
75745;BME280;64359;51.366;-0.222;2023-10-19T04:12:50;98226.09;;;21.29;60.98
75745;BME280;64359;51.366;-0.222;2023-10-19T04:13:52;98224.66;;;21.31;60.89
75745;BME280;64359;51.366;-0.222;2023-10-19T04:14:55;98222.83;;;21.32;60.88
75745;BME280;64359;51.366;-0.222;2023-10-19T04:15:57;98223.66;;;21.33;60.88
75745;BME280;64359;51.366;-0.222;2023-10-19T04:17:00;98221.99;;;21.34;60.98
75745;BME280;64359;51.366;-0.222;2023-10-19T04:18:03;98220.11;;;21.36;60.99
75745;BME280;64359;51.366;-0.222;2023-10-19T04:19:10;98219.09;;;21.37;60.72
75745;BME280;64359;51.366;-0.222;2023-10-19T04:20:13;98216.24;;;21.39;60.79
75745;BME280;64359;51.366;-0.222;2023-10-19T04:21:30;98216.95;;;21.40;60.84
75745;BME280;64359;51.366;-0.222;2023-10-19T04:22:32;98210.95;;;21.41;60.75
75745;BME280;64359;51.366;-0.222;2023-10-19T04:23:34;98213.79;;;21.43;60.77
75745;BME280;64359;51.366;-0.222;2023-10-19T04:24:38;98210.87;;;21.44;60.66
75745;BME280;64359;51.366;-0.222;2023-10-19T04:25:40;98213.70;;;21.45;60.72
75745;BME280;64359;51.366;-0.222;2023-10-19T04:26:42;98210.73;;;21.47;60.63
75745;BME280;64359;51.366;-0.222;2023-10-19T04:27:45;98213.61;;;21.48;60.77
75745;BME280;64359;51.366;-0.222;2023-10-19T04:28:47;98211.09;;;21.49;60.55
75745;BME280;64359;51.366;-0.222;2023-10-19T04:29:52;98208.55;;;21.50;60.66
75745;BME280;64359;51.366;-0.222;2023-10-19T04:30:54;98212.79;;;21.52;60.55
75745;BME280;64359;51.366;-0.222;2023-10-19T04:31:57;98209.30;;;21.54;60.57
75745;BME280;64359;51.366;-0.222;2023-10-19T04:33:00;98211.27;;;21.55;60.46
75745;BME280;64359;51.366;-0.222;2023-10-19T04:34:03;98208.15;;;21.56;60.55
75745;BME280;64359;51.366;-0.222;2023-10-19T04:35:08;98209.46;;;21.57;60.56
75745;BME280;64359;51.366;-0.222;2023-10-19T04:36:11;98208.00;;;21.58;60.49
75745;BME280;64359;51.366;-0.222;2023-10-19T04:37:13;98207.56;;;21.58;60.47
75745;BME280;64359;51.366;-0.222;2023-10-19T04:38:19;98203.41;;;21.60;60.37
75745;BME280;64359;51.366;-0.222;2023-10-19T04:39:22;98207.54;;;21.60;60.43
75745;BME280;64359;51.366;-0.222;2023-10-19T04:40:24;98204.95;;;21.61;60.32
75745;BME280;64359;51.366;-0.222;2023-10-19T04:41:26;98201.75;;;21.62;60.39
75745;BME280;64359;51.366;-0.222;2023-10-19T04:42:29;98198.73;;;21.63;60.33
75745;BME280;64359;51.366;-0.222;2023-10-19T04:43:31;98197.97;;;21.63;60.30
75745;BME280;64359;51.366;-0.222;2023-10-19T04:44:33;98196.41;;;21.63;60.31
75745;BME280;64359;51.366;-0.222;2023-10-19T04:45:40;98198.80;;;21.64;60.24
75745;BME280;64359;51.366;-0.222;2023-10-19T04:46:42;98197.28;;;21.65;60.27
75745;BME280;64359;51.366;-0.222;2023-10-19T04:47:44;98195.94;;;21.65;60.27
75745;BME280;64359;51.366;-0.222;2023-10-19T04:48:48;98197.72;;;21.65;60.20
75745;BME280;64359;51.366;-0.222;2023-10-19T04:49:51;98191.28;;;21.66;60.20
75745;BME280;64359;51.366;-0.222;2023-10-19T04:50:53;98189.98;;;21.66;60.25
75745;BME280;64359;51.366;-0.222;2023-10-19T04:51:55;98187.77;;;21.66;60.25
75745;BME280;64359;51.366;-0.222;2023-10-19T04:52:57;98187.12;;;21.67;60.22
75745;BME280;64359;51.366;-0.222;2023-10-19T04:54:00;98190.98;;;21.68;60.33
75745;BME280;64359;51.366;-0.222;2023-10-19T04:55:03;98185.71;;;21.68;60.31
75745;BME280;64359;51.366;-0.222;2023-10-19T04:56:07;98188.05;;;21.68;60.27
75745;BME280;64359;51.366;-0.222;2023-10-19T04:57:10;98186.59;;;21.69;60.35
75745;BME280;64359;51.366;-0.222;2023-10-19T04:58:13;98187.41;;;21.69;60.31
75745;BME280;64359;51.366;-0.222;2023-10-19T04:59:15;98185.59;;;21.71;60.45
75745;BME280;64359;51.366;-0.222;2023-10-19T05:00:19;98185.69;;;21.71;60.27
75745;BME280;64359;51.366;-0.222;2023-10-19T05:01:23;98186.89;;;21.73;60.38
75745;BME280;64359;51.366;-0.222;2023-10-19T05:02:25;98184.25;;;21.73;60.40
75745;BME280;64359;51.366;-0.222;2023-10-19T05:03:27;98179.59;;;21.74;60.23
75745;BME280;64359;51.366;-0.222;2023-10-19T05:04:29;98180.52;;;21.75;60.38
75745;BME280;64359;51.366;-0.222;2023-10-19T05:05:32;98177.75;;;21.75;60.16
75745;BME280;64359;51.366;-0.222;2023-10-19T05:06:34;98174.36;;;21.76;60.29
75745;BME280;64359;51.366;-0.222;2023-10-19T05:07:36;98174.92;;;21.78;60.18
75745;BME280;64359;51.366;-0.222;2023-10-19T05:08:39;98172.07;;;21.78;60.19
75745;BME280;64359;51.366;-0.222;2023-10-19T05:09:41;98174.99;;;21.79;60.08
75745;BME280;64359;51.366;-0.222;2023-10-19T05:10:43;98174.63;;;21.80;60.15
75745;BME280;64359;51.366;-0.222;2023-10-19T05:11:46;98173.01;;;21.81;60.18
75745;BME280;64359;51.366;-0.222;2023-10-19T05:12:48;98171.66;;;21.82;60.16
75745;BME280;64359;51.366;-0.222;2023-10-19T05:13:50;98171.08;;;21.82;59.99
75745;BME280;64359;51.366;-0.222;2023-10-19T05:14:52;98169.02;;;21.83;60.15
75745;BME280;64359;51.366;-0.222;2023-10-19T05:15:55;98167.71;;;21.83;60.14
75745;BME280;64359;51.366;-0.222;2023-10-19T05:16:57;98168.20;;;21.84;60.17
75745;BME280;64359;51.366;-0.222;2023-10-19T05:18:00;98170.31;;;21.84;60.04
75745;BME280;64359;51.366;-0.222;2023-10-19T05:19:02;98165.89;;;21.85;59.99
75745;BME280;64359;51.366;-0.222;2023-10-19T05:20:08;98169.79;;;21.85;60.17
75745;BME280;64359;51.366;-0.222;2023-10-19T05:21:10;98167.95;;;21.86;60.11
75745;BME280;64359;51.366;-0.222;2023-10-19T05:22:14;98168.02;;;21.83;60.06
75745;BME280;64359;51.366;-0.222;2023-10-19T05:23:16;98166.74;;;21.84;60.01
75745;BME280;64359;51.366;-0.222;2023-10-19T05:24:19;98172.18;;;21.86;60.16
75745;BME280;64359;51.366;-0.222;2023-10-19T05:25:21;98168.77;;;21.86;60.11
75745;BME280;64359;51.366;-0.222;2023-10-19T05:26:25;98176.30;;;21.86;60.08
75745;BME280;64359;51.366;-0.222;2023-10-19T05:27:27;98167.08;;;21.86;60.14
75745;BME280;64359;51.366;-0.222;2023-10-19T05:28:30;98176.80;;;21.88;60.14
75745;BME280;64359;51.366;-0.222;2023-10-19T05:29:32;98171.92;;;21.88;60.11
75745;BME280;64359;51.366;-0.222;2023-10-19T05:30:36;98172.95;;;21.88;60.17
75745;BME280;64359;51.366;-0.222;2023-10-19T05:31:38;98178.65;;;21.88;60.14
75745;BME280;64359;51.366;-0.222;2023-10-19T05:32:41;98173.34;;;21.89;60.22
75745;BME280;64359;51.366;-0.222;2023-10-19T05:33:43;98167.65;;;21.89;60.20
75745;BME280;64359;51.366;-0.222;2023-10-19T05:34:45;98169.98;;;21.89;60.19
75745;BME280;64359;51.366;-0.222;2023-10-19T05:35:48;98173.67;;;21.90;60.12